createdAt,value
2019-01-29T00:00:53.643Z,19.21
2019-01-29T00:01:53.798Z,19.24
2019-01-29T00:02:53.643Z,19.29
2019-01-29T00:03:53.611Z,19.26
2019-01-29T00:04:53.653Z,19.27
2019-01-29T00:05:53.573Z,19.33
2019-01-29T00:06:53.563Z,19.30
2019-01-29T00:07:53.554Z,19.30
2019-01-29T00:08:53.541Z,19.29
2019-01-29T00:09:53.577Z,19.22
2019-01-29T00:10:53.531Z,19.30
2019-01-29T00:11:53.524Z,19.26
2019-01-29T00:12:53.500Z,19.30
2019-01-29T00:13:53.496Z,19.30
2019-01-29T00:14:53.549Z,19.27
2019-01-29T00:15:53.484Z,19.21
2019-01-29T00:16:53.467Z,19.24
2019-01-29T00:17:53.470Z,19.30
2019-01-29T00:18:53.467Z,19.19
2019-01-29T00:19:53.518Z,19.27
2019-01-29T00:20:53.453Z,19.30
2019-01-29T00:21:53.437Z,19.33
2019-01-29T00:22:53.443Z,19.26
2019-01-29T00:23:53.511Z,19.22
2019-01-29T00:24:53.462Z,19.27
2019-01-29T00:25:53.394Z,19.18
2019-01-29T00:26:53.388Z,19.31
2019-01-29T00:27:53.341Z,19.24
2019-01-29T00:28:53.322Z,19.31
2019-01-29T00:29:53.529Z,19.27
2019-01-29T00:30:53.301Z,19.30
2019-01-29T00:31:53.300Z,19.27
2019-01-29T00:32:53.310Z,19.27
2019-01-29T00:33:53.266Z,19.30
2019-01-29T00:34:53.295Z,19.29
2019-01-29T00:35:53.265Z,19.24
2019-01-29T00:36:53.233Z,19.26
2019-01-29T00:37:53.232Z,19.31
2019-01-29T00:38:53.214Z,19.30
2019-01-29T00:39:53.235Z,19.31
2019-01-29T00:40:53.412Z,19.29
2019-01-29T00:41:53.179Z,19.26
2019-01-29T00:42:53.199Z,19.26
2019-01-29T00:43:53.169Z,19.29
2019-01-29T00:44:53.183Z,19.24
2019-01-29T00:45:53.152Z,19.27
2019-01-29T00:46:53.138Z,19.33
2019-01-29T00:47:53.176Z,19.30
2019-01-29T00:48:53.104Z,19.29
2019-01-29T00:49:53.131Z,19.30
2019-01-29T00:50:53.113Z,19.26
2019-01-29T00:51:53.085Z,19.27
2019-01-29T00:52:53.089Z,19.22
2019-01-29T00:53:53.050Z,19.30
2019-01-29T00:54:53.079Z,19.26
2019-01-29T00:55:53.045Z,19.26
2019-01-29T00:56:53.095Z,19.27
2019-01-29T00:57:53.028Z,19.16
2019-01-29T00:58:53.016Z,19.22
2019-01-29T00:59:52.988Z,19.27
2019-01-29T01:00:52.988Z,19.19
2019-01-29T01:01:52.961Z,19.18
2019-01-29T01:02:52.955Z,19.22
2019-01-29T01:03:52.944Z,19.24
2019-01-29T01:04:52.934Z,19.30
2019-01-29T01:05:52.918Z,19.24
2019-01-29T01:06:52.910Z,19.31
2019-01-29T01:07:52.902Z,19.29
2019-01-29T01:08:52.890Z,19.30
2019-01-29T01:09:57.213Z,19.37
2019-01-29T01:10:52.869Z,19.37
2019-01-29T01:11:52.893Z,19.27
2019-01-29T01:12:52.843Z,19.27
2019-01-29T01:13:52.832Z,19.29
2019-01-29T01:14:52.841Z,19.26
2019-01-29T01:15:52.850Z,19.18
2019-01-29T01:16:52.813Z,19.34
2019-01-29T01:17:52.836Z,19.39
2019-01-29T01:18:52.810Z,19.29
2019-01-29T01:19:52.795Z,19.31
2019-01-29T01:20:52.867Z,19.27
2019-01-29T01:21:52.783Z,19.26
2019-01-29T01:22:52.763Z,19.24
2019-01-29T01:23:52.761Z,19.30
2019-01-29T01:24:52.745Z,19.19
2019-01-29T01:25:52.799Z,19.24
2019-01-29T01:26:52.739Z,19.27
2019-01-29T01:27:52.691Z,19.27
2019-01-29T01:28:52.676Z,19.27
2019-01-29T01:29:52.664Z,19.24
2019-01-29T01:30:52.682Z,19.30
2019-01-29T01:31:52.643Z,19.31
2019-01-29T01:32:52.629Z,19.26
2019-01-29T01:33:52.687Z,19.27
2019-01-29T01:34:52.658Z,19.24
2019-01-29T01:35:52.631Z,19.36
2019-01-29T01:36:52.600Z,19.24
2019-01-29T01:37:52.578Z,19.31
2019-01-29T01:38:52.567Z,19.39
2019-01-29T01:39:52.573Z,19.34
2019-01-29T01:40:52.579Z,19.30
2019-01-29T01:41:52.613Z,19.29
2019-01-29T01:42:52.524Z,19.37
2019-01-29T01:43:52.511Z,19.19
2019-01-29T01:44:52.500Z,19.29
2019-01-29T01:45:52.522Z,19.24
2019-01-29T01:46:52.475Z,19.26
2019-01-29T01:47:52.461Z,19.30
2019-01-29T01:48:52.455Z,19.29
2019-01-29T01:49:52.450Z,19.26
2019-01-29T01:50:52.498Z,19.29
2019-01-29T01:51:52.421Z,19.18
2019-01-29T01:52:59.092Z,19.27
2019-01-29T01:53:52.401Z,19.21
2019-01-29T01:54:52.422Z,19.19
2019-01-29T01:55:52.410Z,19.24
2019-01-29T01:56:52.365Z,19.26
2019-01-29T01:57:52.358Z,19.21
2019-01-29T01:58:52.337Z,19.29
2019-01-29T01:59:52.342Z,19.36
2019-01-29T02:00:52.355Z,19.31
2019-01-29T02:01:52.304Z,19.37
2019-01-29T02:02:52.307Z,19.37
2019-01-29T02:03:52.290Z,19.36
2019-01-29T02:04:52.351Z,19.37
2019-01-29T02:05:52.314Z,19.39
2019-01-29T02:06:52.316Z,19.36
2019-01-29T02:07:52.242Z,19.36
2019-01-29T02:08:52.232Z,19.33
2019-01-29T02:09:52.241Z,19.31
2019-01-29T02:10:52.263Z,19.36
2019-01-29T02:11:52.201Z,19.39
2019-01-29T02:12:52.203Z,19.36
2019-01-29T02:13:52.177Z,19.29
2019-01-29T02:14:52.165Z,19.34
2019-01-29T02:15:52.186Z,19.18
2019-01-29T02:16:52.148Z,19.26
2019-01-29T02:17:52.394Z,19.26
2019-01-29T02:18:52.151Z,19.29
2019-01-29T02:19:52.148Z,19.34
2019-01-29T02:20:52.247Z,19.29
2019-01-29T02:21:52.198Z,19.27
2019-01-29T02:22:52.126Z,19.30
2019-01-29T02:24:02.108Z,19.29
2019-01-29T02:24:52.085Z,19.30
2019-01-29T02:25:52.170Z,19.26
2019-01-29T02:26:52.117Z,19.27
2019-01-29T02:27:52.023Z,19.37
2019-01-29T02:28:52.020Z,19.31
2019-01-29T02:29:52.022Z,19.27
2019-01-29T02:30:52.007Z,19.29
2019-01-29T02:31:51.987Z,19.27
2019-01-29T02:32:51.976Z,19.26
2019-01-29T02:33:51.959Z,19.33
2019-01-29T02:34:51.954Z,19.34
2019-01-29T02:35:51.959Z,19.31
2019-01-29T02:36:51.942Z,19.37
2019-01-29T02:37:51.934Z,19.36
2019-01-29T02:38:51.903Z,19.34
2019-01-29T02:39:51.956Z,19.40
2019-01-29T02:40:51.921Z,19.27
2019-01-29T02:41:51.883Z,19.22
2019-01-29T02:42:51.870Z,19.29
2019-01-29T02:43:51.871Z,19.36
2019-01-29T02:44:52.066Z,19.29
2019-01-29T02:45:51.846Z,19.37
2019-01-29T02:46:51.877Z,19.34
2019-01-29T02:47:51.879Z,19.37
2019-01-29T02:48:51.805Z,19.39
2019-01-29T02:49:51.905Z,19.36
2019-01-29T02:50:51.776Z,19.30
2019-01-29T02:51:51.820Z,19.34
2019-01-29T02:52:51.761Z,19.31
2019-01-29T02:53:51.752Z,19.37
2019-01-29T02:54:51.731Z,19.36
2019-01-29T02:55:51.728Z,19.31
2019-01-29T02:56:51.784Z,19.29
2019-01-29T02:57:51.719Z,19.29
2019-01-29T02:58:51.686Z,19.36
2019-01-29T02:59:52.305Z,19.33
2019-01-29T03:00:51.671Z,19.30
2019-01-29T03:01:51.698Z,19.27
2019-01-29T03:02:51.657Z,19.30
2019-01-29T03:03:51.639Z,19.26
2019-01-29T03:04:53.435Z,19.27
2019-01-29T03:05:51.666Z,19.21
2019-01-29T03:06:51.647Z,19.26
2019-01-29T03:07:51.633Z,19.27
2019-01-29T03:08:51.574Z,19.27
2019-01-29T03:09:51.564Z,19.27
2019-01-29T03:10:51.564Z,19.33
2019-01-29T03:11:51.594Z,19.27
2019-01-29T03:12:51.547Z,19.36
2019-01-29T03:13:51.521Z,19.27
2019-01-29T03:14:51.537Z,19.27
2019-01-29T03:15:51.509Z,19.26
2019-01-29T03:16:51.531Z,19.33
2019-01-29T03:17:51.529Z,19.21
2019-01-29T03:18:51.534Z,19.22
2019-01-29T03:20:51.586Z,19.31
2019-01-29T03:22:01.543Z,19.24
2019-01-29T03:22:51.462Z,19.30
2019-01-29T03:23:51.492Z,19.24
2019-01-29T03:24:51.414Z,19.21
2019-01-29T03:25:51.427Z,19.21
2019-01-29T03:26:51.529Z,19.26
2019-01-29T03:27:51.370Z,19.16
2019-01-29T03:28:51.363Z,19.18
2019-01-29T03:29:51.353Z,19.19
2019-01-29T03:30:51.382Z,19.14
2019-01-29T03:31:51.413Z,19.22
2019-01-29T03:32:51.326Z,19.14
2019-01-29T03:33:51.306Z,19.15
2019-01-29T03:34:51.292Z,19.15
2019-01-29T03:35:51.293Z,19.18
2019-01-29T03:36:51.305Z,19.09
2019-01-29T03:37:51.273Z,19.02
2019-01-29T03:38:51.291Z,19.12
2019-01-29T03:39:51.240Z,19.08
2019-01-29T03:40:51.241Z,19.09
2019-01-29T03:41:51.270Z,19.04
2019-01-29T03:42:51.232Z,19.04
2019-01-29T03:43:51.230Z,19.14
2019-01-29T03:44:51.234Z,19.12
2019-01-29T03:45:54.192Z,19.07
2019-01-29T03:46:51.239Z,19.08
2019-01-29T03:47:51.150Z,19.07
2019-01-29T03:48:51.183Z,19.02
2019-01-29T03:49:54.165Z,19.08
2019-01-29T03:50:51.122Z,19.12
2019-01-29T03:51:51.148Z,19.07
2019-01-29T03:52:51.105Z,19.07
2019-01-29T03:53:51.085Z,18.99
2019-01-29T03:54:51.100Z,19.08
2019-01-29T03:55:51.086Z,19.09
2019-01-29T03:56:51.109Z,19.07
2019-01-29T03:57:51.066Z,19.07
2019-01-29T03:58:51.038Z,19.07
2019-01-29T03:59:51.073Z,19.11
2019-01-29T04:00:51.014Z,19.07
2019-01-29T04:01:51.035Z,19.08
2019-01-29T04:02:52.027Z,19.08
2019-01-29T04:03:50.989Z,19.07
2019-01-29T04:04:50.973Z,19.08
2019-01-29T04:05:50.976Z,19.07
2019-01-29T04:06:50.990Z,19.02
2019-01-29T04:07:50.951Z,19.07
2019-01-29T04:08:50.927Z,19.11
2019-01-29T04:09:50.976Z,19.07
2019-01-29T04:10:51.559Z,19.09
2019-01-29T04:11:50.999Z,19.04
2019-01-29T04:12:50.891Z,18.96
2019-01-29T04:13:51.078Z,19.08
2019-01-29T04:14:50.882Z,19.00
2019-01-29T04:15:50.864Z,18.99
2019-01-29T04:16:50.843Z,19.07
2019-01-29T04:17:50.861Z,18.99
2019-01-29T04:18:50.871Z,19.04
2019-01-29T04:19:50.881Z,19.00
2019-01-29T04:20:50.827Z,19.04
2019-01-29T04:21:50.864Z,19.02
2019-01-29T04:22:50.794Z,19.04
2019-01-29T04:23:50.788Z,19.09
2019-01-29T04:24:50.788Z,19.09
2019-01-29T04:25:50.790Z,19.07
2019-01-29T04:26:50.781Z,19.00
2019-01-29T04:27:50.732Z,19.07
2019-01-29T04:28:50.712Z,19.14
2019-01-29T04:29:50.699Z,19.15
2019-01-29T04:30:50.683Z,19.24
2019-01-29T04:31:50.676Z,19.27
2019-01-29T04:32:50.706Z,19.27
2019-01-29T04:33:50.656Z,19.26
2019-01-29T04:34:50.647Z,19.26
2019-01-29T04:35:50.631Z,19.30
2019-01-29T04:36:51.971Z,19.24
2019-01-29T04:37:50.656Z,19.29
2019-01-29T04:38:50.617Z,19.24
2019-01-29T04:39:50.593Z,19.36
2019-01-29T04:40:50.588Z,19.31
2019-01-29T04:41:50.570Z,19.37
2019-01-29T04:42:50.588Z,19.34
2019-01-29T04:43:50.545Z,19.36
2019-01-29T04:44:50.535Z,19.33
2019-01-29T04:45:50.521Z,19.36
2019-01-29T04:46:50.510Z,19.34
2019-01-29T04:47:50.538Z,19.40
2019-01-29T04:48:50.487Z,19.34
2019-01-29T04:49:50.478Z,19.33
2019-01-29T04:50:50.487Z,19.36
2019-01-29T04:51:50.452Z,19.36
2019-01-29T04:52:50.489Z,19.37
2019-01-29T04:53:57.202Z,19.33
2019-01-29T04:54:50.436Z,19.33
2019-01-29T04:55:50.423Z,19.31
2019-01-29T04:56:50.445Z,19.37
2019-01-29T04:57:50.431Z,19.34
2019-01-29T04:58:51.398Z,19.34
2019-01-29T04:59:50.379Z,19.33
2019-01-29T05:00:50.543Z,19.31
2019-01-29T05:01:50.348Z,19.36
2019-01-29T05:02:50.405Z,19.34
2019-01-29T05:03:50.333Z,19.36
2019-01-29T05:04:50.315Z,19.37
2019-01-29T05:05:50.312Z,19.33
2019-01-29T05:06:50.291Z,19.37
2019-01-29T05:07:50.336Z,19.36
2019-01-29T05:08:50.274Z,19.37
2019-01-29T05:09:50.257Z,19.36
2019-01-29T05:10:50.249Z,19.34
2019-01-29T05:11:50.246Z,19.44
2019-01-29T05:12:50.282Z,19.34
2019-01-29T05:13:50.418Z,19.33
2019-01-29T05:14:50.207Z,19.37
2019-01-29T05:15:50.221Z,19.37
2019-01-29T05:16:50.203Z,19.39
2019-01-29T05:17:50.279Z,19.41
2019-01-29T05:18:50.192Z,19.39
2019-01-29T05:19:50.148Z,19.37
2019-01-29T05:20:50.168Z,19.41
2019-01-29T05:21:50.170Z,19.41
2019-01-29T05:22:50.223Z,19.39
2019-01-29T05:23:50.165Z,19.39
2019-01-29T05:24:50.137Z,19.41
2019-01-29T05:25:50.127Z,19.39
2019-01-29T05:26:50.108Z,19.36
2019-01-29T05:27:50.115Z,19.37
2019-01-29T05:28:50.061Z,19.40
2019-01-29T05:29:50.043Z,19.39
2019-01-29T05:30:50.032Z,19.40
2019-01-29T05:31:50.018Z,19.44
2019-01-29T05:32:50.056Z,19.41
2019-01-29T05:33:50.016Z,19.41
2019-01-29T05:34:49.991Z,19.37
2019-01-29T05:35:49.984Z,19.39
2019-01-29T05:36:49.979Z,19.33
2019-01-29T05:37:49.990Z,19.36
2019-01-29T05:38:49.951Z,19.36
2019-01-29T05:39:51.169Z,19.31
2019-01-29T05:40:49.934Z,19.37
2019-01-29T05:41:49.912Z,19.34
2019-01-29T05:42:49.952Z,19.31
2019-01-29T05:43:49.903Z,19.34
2019-01-29T05:44:49.882Z,19.33
2019-01-29T05:45:49.917Z,19.34
2019-01-29T05:46:49.864Z,19.34
2019-01-29T05:47:49.926Z,19.31
2019-01-29T05:48:49.848Z,19.33
2019-01-29T05:49:49.843Z,19.34
2019-01-29T05:50:49.813Z,19.34
2019-01-29T05:51:49.819Z,19.37
2019-01-29T05:52:49.794Z,19.27
2019-01-29T05:53:50.295Z,19.31
2019-01-29T05:54:49.788Z,19.29
2019-01-29T05:55:49.760Z,19.30
2019-01-29T05:56:50.007Z,19.27
2019-01-29T05:57:49.737Z,19.24
2019-01-29T05:58:49.737Z,19.30
2019-01-29T05:59:49.721Z,19.30
2019-01-29T06:00:49.763Z,19.27
2019-01-29T06:01:49.709Z,19.37
2019-01-29T06:02:49.692Z,19.29
2019-01-29T06:03:49.713Z,19.27
2019-01-29T06:04:49.665Z,19.36
2019-01-29T06:05:49.665Z,19.31
2019-01-29T06:06:49.637Z,19.36
2019-01-29T06:07:49.904Z,19.27
2019-01-29T06:08:49.658Z,19.40
2019-01-29T06:09:49.639Z,19.36
2019-01-29T06:10:49.601Z,19.30
2019-01-29T06:11:49.584Z,19.36
2019-01-29T06:12:49.566Z,19.34
2019-01-29T06:13:49.596Z,19.31
2019-01-29T06:14:49.575Z,19.33
2019-01-29T06:15:49.571Z,19.33
2019-01-29T06:16:49.540Z,19.34
2019-01-29T06:17:49.575Z,19.31
2019-01-29T06:18:49.733Z,19.36
2019-01-29T06:19:49.530Z,19.36
2019-01-29T06:20:49.547Z,19.34
2019-01-29T06:21:49.611Z,19.39
2019-01-29T06:22:49.523Z,19.34
2019-01-29T06:23:49.611Z,19.33
2019-01-29T06:24:49.496Z,19.22
2019-01-29T06:25:49.484Z,18.73
2019-01-29T06:26:49.434Z,18.34
2019-01-29T06:27:49.430Z,17.92
2019-01-29T06:28:49.492Z,17.48
2019-01-29T06:29:49.394Z,17.19
2019-01-29T06:30:49.389Z,16.91
2019-01-29T06:31:49.417Z,16.53
2019-01-29T06:32:49.352Z,16.32
2019-01-29T06:33:49.374Z,16.16
2019-01-29T06:34:49.337Z,16.05
2019-01-29T06:35:49.324Z,15.91
2019-01-29T06:36:50.915Z,15.67
2019-01-29T06:37:49.312Z,15.58
2019-01-29T06:38:49.320Z,15.57
2019-01-29T06:39:49.286Z,15.37
2019-01-29T06:40:49.277Z,15.28
2019-01-29T06:41:49.260Z,15.22
2019-01-29T06:42:51.113Z,15.25
2019-01-29T06:43:49.270Z,15.22
2019-01-29T06:44:49.302Z,15.22
2019-01-29T06:45:49.342Z,15.17
2019-01-29T06:46:49.214Z,15.03
2019-01-29T06:47:49.249Z,15.04
2019-01-29T06:48:49.229Z,14.96
2019-01-29T06:49:49.172Z,14.96
2019-01-29T06:50:49.163Z,14.89
2019-01-29T06:51:49.148Z,14.86
2019-01-29T06:52:49.140Z,14.81
2019-01-29T06:53:49.164Z,14.82
2019-01-29T06:54:49.135Z,14.73
2019-01-29T06:55:49.104Z,14.63
2019-01-29T06:56:49.112Z,14.70
2019-01-29T06:57:55.042Z,14.63
2019-01-29T06:58:49.094Z,14.53
2019-01-29T06:59:49.071Z,14.55
2019-01-29T07:00:49.065Z,14.47
2019-01-29T07:01:49.047Z,14.35
2019-01-29T07:02:49.038Z,14.50
2019-01-29T07:03:49.049Z,14.50
2019-01-29T07:04:49.019Z,14.59
2019-01-29T07:05:49.002Z,14.58
2019-01-29T07:06:48.989Z,14.73
2019-01-29T07:07:48.988Z,14.77
2019-01-29T07:08:49.006Z,14.68
2019-01-29T07:09:48.966Z,14.72
2019-01-29T07:10:48.936Z,14.94
2019-01-29T07:11:48.939Z,15.07
2019-01-29T07:12:48.920Z,15.31
2019-01-29T07:13:48.952Z,15.46
2019-01-29T07:14:48.921Z,15.73
2019-01-29T07:15:48.894Z,15.79
2019-01-29T07:16:48.880Z,16.01
2019-01-29T07:17:48.919Z,16.09
2019-01-29T07:18:49.077Z,16.29
2019-01-29T07:19:48.911Z,16.56
2019-01-29T07:20:48.893Z,16.58
2019-01-29T07:21:48.875Z,16.69
2019-01-29T07:22:48.884Z,16.90
2019-01-29T07:23:48.962Z,16.96
2019-01-29T07:24:48.826Z,16.97
2019-01-29T07:25:48.839Z,17.12
2019-01-29T07:26:48.861Z,17.20
2019-01-29T07:27:48.865Z,17.31
2019-01-29T07:28:48.780Z,17.36
2019-01-29T07:29:48.772Z,17.38
2019-01-29T07:30:48.787Z,17.56
2019-01-29T07:31:48.769Z,17.67
2019-01-29T07:32:48.708Z,17.64
2019-01-29T07:33:48.694Z,17.70
2019-01-29T07:34:48.861Z,17.76
2019-01-29T07:35:48.686Z,17.85
2019-01-29T07:36:48.919Z,17.90
2019-01-29T07:37:48.646Z,17.94
2019-01-29T07:38:48.651Z,18.01
2019-01-29T07:39:48.736Z,17.97
2019-01-29T07:40:48.758Z,18.04
2019-01-29T07:41:48.639Z,18.16
2019-01-29T07:42:48.583Z,18.18
2019-01-29T07:43:48.584Z,18.19
2019-01-29T07:44:48.647Z,18.33
2019-01-29T07:45:48.637Z,18.38
2019-01-29T07:46:48.658Z,18.45
2019-01-29T07:47:48.580Z,18.44
2019-01-29T07:48:48.555Z,18.49
2019-01-29T07:49:48.587Z,18.55
2019-01-29T07:50:48.554Z,18.55
2019-01-29T07:51:48.660Z,18.58
2019-01-29T07:52:48.565Z,18.52
2019-01-29T07:53:48.516Z,18.56
2019-01-29T07:54:51.244Z,18.59
2019-01-29T07:55:48.683Z,18.60
2019-01-29T07:56:48.630Z,18.66
2019-01-29T07:57:48.622Z,18.68
2019-01-29T07:58:49.369Z,18.70
2019-01-29T07:59:48.436Z,18.73
2019-01-29T08:00:48.502Z,18.70
2019-01-29T08:01:48.494Z,18.78
2019-01-29T08:02:48.381Z,18.75
2019-01-29T08:03:48.458Z,18.83
2019-01-29T08:04:58.559Z,18.81
2019-01-29T08:05:48.887Z,18.84
2019-01-29T08:06:48.550Z,18.89
2019-01-29T08:07:48.323Z,18.88
2019-01-29T08:08:48.334Z,18.92
2019-01-29T08:09:48.308Z,18.95
2019-01-29T08:10:48.369Z,18.99
2019-01-29T08:11:48.282Z,18.89
2019-01-29T08:12:48.263Z,19.02
2019-01-29T08:13:48.313Z,19.08
2019-01-29T08:14:48.308Z,18.99
2019-01-29T08:15:48.691Z,19.02
2019-01-29T08:16:47.254Z,18.99
2019-01-29T08:17:58.265Z,19.04
2019-01-29T08:18:49.956Z,19.04
2019-01-29T08:19:49.234Z,19.08
2019-01-29T08:20:48.328Z,19.07
2019-01-29T08:21:48.229Z,19.07
2019-01-29T08:22:48.196Z,19.07
2019-01-29T08:23:48.243Z,19.00
2019-01-29T08:24:51.910Z,19.07
2019-01-29T08:25:48.347Z,19.11
2019-01-29T08:26:48.521Z,19.04
2019-01-29T08:27:48.159Z,19.08
2019-01-29T08:28:48.145Z,19.02
2019-01-29T08:29:48.121Z,19.04
2019-01-29T08:30:48.218Z,19.11
2019-01-29T08:31:48.092Z,18.99
2019-01-29T08:32:48.124Z,19.15
2019-01-29T08:33:48.082Z,19.14
2019-01-29T08:34:48.027Z,19.18
2019-01-29T08:35:48.090Z,19.26
2019-01-29T08:36:48.093Z,19.26
2019-01-29T08:37:48.249Z,19.26
2019-01-29T08:38:48.208Z,19.37
2019-01-29T08:39:47.976Z,19.49
2019-01-29T08:40:48.006Z,19.51
2019-01-29T08:41:47.957Z,19.44
2019-01-29T08:42:47.963Z,19.58
2019-01-29T08:43:47.942Z,19.64
2019-01-29T08:44:51.307Z,19.59
2019-01-29T08:45:47.929Z,19.64
2019-01-29T08:46:47.898Z,19.70
2019-01-29T08:47:47.904Z,19.82
2019-01-29T08:48:47.883Z,19.74
2019-01-29T08:49:47.916Z,19.79
2019-01-29T08:50:47.857Z,19.89
2019-01-29T08:51:47.843Z,19.85
2019-01-29T08:52:48.331Z,19.91
2019-01-29T08:53:47.821Z,20.00
2019-01-29T08:54:47.813Z,19.96
2019-01-29T08:55:47.805Z,19.99
2019-01-29T08:56:47.918Z,20.06
2019-01-29T08:57:54.458Z,20.02
2019-01-29T08:58:47.800Z,20.04
2019-01-29T08:59:47.750Z,20.14
2019-01-29T09:00:57.745Z,20.10
2019-01-29T09:01:47.790Z,20.04
2019-01-29T09:02:48.110Z,20.03
2019-01-29T09:03:47.746Z,20.06
2019-01-29T09:04:48.148Z,20.04
2019-01-29T09:05:47.697Z,20.06
2019-01-29T09:06:47.713Z,20.04
2019-01-29T09:07:47.945Z,20.16
2019-01-29T09:08:48.720Z,20.07
2019-01-29T09:09:47.689Z,20.11
2019-01-29T09:10:47.674Z,20.19
2019-01-29T09:11:47.870Z,20.22
2019-01-29T09:12:47.618Z,20.21
2019-01-29T09:13:47.643Z,20.14
2019-01-29T09:14:47.587Z,20.19
2019-01-29T09:15:47.579Z,20.19
2019-01-29T09:16:47.646Z,20.22
2019-01-29T09:17:47.643Z,20.10
2019-01-29T09:18:47.601Z,20.14
2019-01-29T09:19:47.879Z,20.10
2019-01-29T09:20:47.567Z,20.19
2019-01-29T09:21:47.710Z,20.21
2019-01-29T09:22:47.528Z,20.09
2019-01-29T09:23:47.545Z,20.07
2019-01-29T09:24:47.564Z,20.06
2019-01-29T09:25:47.521Z,19.99
2019-01-29T09:26:47.611Z,20.03
2019-01-29T09:27:47.506Z,19.92
2019-01-29T09:28:47.768Z,19.95
2019-01-29T09:29:47.511Z,19.94
2019-01-29T09:30:49.460Z,19.94
2019-01-29T09:31:48.001Z,19.89
2019-01-29T09:32:47.666Z,19.95
2019-01-29T09:33:50.527Z,19.92
2019-01-29T09:34:47.484Z,19.96
2019-01-29T09:35:47.621Z,19.89
2019-01-29T09:36:47.402Z,20.00
2019-01-29T09:37:47.369Z,19.94
2019-01-29T09:38:47.398Z,20.00
2019-01-29T09:39:47.643Z,19.94
2019-01-29T09:40:47.369Z,19.96
2019-01-29T09:41:47.333Z,20.00
2019-01-29T09:42:47.412Z,20.07
2019-01-29T09:43:47.398Z,20.04
2019-01-29T09:44:47.348Z,20.03
2019-01-29T09:45:47.266Z,20.03
2019-01-29T09:46:47.392Z,20.04
2019-01-29T09:47:47.405Z,20.03
2019-01-29T09:48:47.265Z,20.10
2019-01-29T09:49:47.215Z,20.18
2019-01-29T09:50:47.204Z,20.36
2019-01-29T09:51:47.227Z,20.36
2019-01-29T09:52:47.206Z,20.50
2019-01-29T09:53:47.482Z,20.55
2019-01-29T09:54:47.238Z,20.59
2019-01-29T09:55:48.753Z,20.60
2019-01-29T09:56:47.580Z,20.63
2019-01-29T09:57:50.426Z,20.63
2019-01-29T09:58:47.234Z,20.66
2019-01-29T09:59:47.128Z,20.67
2019-01-29T10:00:47.134Z,20.67
2019-01-29T10:01:47.699Z,20.65
2019-01-29T10:02:47.092Z,20.67
2019-01-29T10:03:47.403Z,20.75
2019-01-29T10:04:47.187Z,20.87
2019-01-29T10:05:47.347Z,20.88
2019-01-29T10:06:47.537Z,20.95
2019-01-29T10:07:47.711Z,21.02
2019-01-29T10:08:47.451Z,21.02
2019-01-29T10:09:47.200Z,21.17
2019-01-29T10:10:47.462Z,21.21
2019-01-29T10:11:47.143Z,21.24
2019-01-29T10:12:47.089Z,21.24
2019-01-29T10:13:47.583Z,21.24
2019-01-29T10:14:46.947Z,21.21
2019-01-29T10:15:47.257Z,21.20
2019-01-29T10:16:47.223Z,21.24
2019-01-29T10:17:47.459Z,21.32
2019-01-29T10:18:47.182Z,21.50
2019-01-29T10:19:48.243Z,21.52
2019-01-29T10:20:47.118Z,21.57
2019-01-29T10:21:47.044Z,21.69
2019-01-29T10:22:47.154Z,21.75
2019-01-29T10:23:47.219Z,21.80
2019-01-29T10:24:47.397Z,21.88
2019-01-29T10:25:47.065Z,21.80
2019-01-29T10:26:46.957Z,21.89
2019-01-29T10:27:46.844Z,22.04
2019-01-29T10:28:46.914Z,22.08
2019-01-29T10:29:47.848Z,22.13
2019-01-29T10:30:46.831Z,22.15
2019-01-29T10:31:46.851Z,22.20
2019-01-29T10:32:47.478Z,22.22
2019-01-29T10:33:46.778Z,22.22
2019-01-29T10:34:46.932Z,22.23
2019-01-29T10:35:46.765Z,22.29
2019-01-29T10:36:46.763Z,22.33
2019-01-29T10:37:46.771Z,22.33
2019-01-29T10:38:46.748Z,22.39
2019-01-29T10:39:47.911Z,22.43
2019-01-29T10:40:46.678Z,22.45
2019-01-29T10:41:46.678Z,22.53
2019-01-29T10:42:46.684Z,22.68
2019-01-29T10:43:46.632Z,22.66
2019-01-29T10:44:46.630Z,22.63
2019-01-29T10:45:46.603Z,22.65
2019-01-29T10:46:46.720Z,22.76
2019-01-29T10:47:46.646Z,22.75
2019-01-29T10:48:46.687Z,22.75
2019-01-29T10:49:46.579Z,22.72
2019-01-29T10:50:46.588Z,22.81
2019-01-29T10:51:46.544Z,22.84
2019-01-29T10:52:46.555Z,22.87
2019-01-29T10:53:47.760Z,22.93
2019-01-29T10:54:46.506Z,22.91
2019-01-29T10:55:47.624Z,22.88
2019-01-29T10:56:46.500Z,22.96
2019-01-29T10:57:56.769Z,22.94
2019-01-29T10:58:46.465Z,23.02
2019-01-29T10:59:46.735Z,23.05
2019-01-29T11:00:46.520Z,23.09
2019-01-29T11:01:46.472Z,23.06
2019-01-29T11:02:46.489Z,23.03
2019-01-29T11:03:48.343Z,23.09
2019-01-29T11:04:47.430Z,23.06
2019-01-29T11:05:46.841Z,23.10
2019-01-29T11:06:46.384Z,23.20
2019-01-29T11:07:46.431Z,23.10
2019-01-29T11:08:51.535Z,23.18
2019-01-29T11:09:48.420Z,23.21
2019-01-29T11:10:46.352Z,23.25
2019-01-29T11:11:46.505Z,23.28
2019-01-29T11:12:46.383Z,23.27
2019-01-29T11:13:46.355Z,23.31
2019-01-29T11:14:46.317Z,23.25
2019-01-29T11:15:46.279Z,23.32
2019-01-29T11:16:46.272Z,23.24
2019-01-29T11:17:46.389Z,23.36
2019-01-29T11:18:46.377Z,23.41
2019-01-29T11:19:46.297Z,23.40
2019-01-29T11:20:46.325Z,23.36
2019-01-29T11:21:46.285Z,23.40
2019-01-29T11:22:46.469Z,23.39
2019-01-29T11:23:46.298Z,23.40
2019-01-29T11:24:46.239Z,23.39
2019-01-29T11:25:46.424Z,23.40
2019-01-29T11:26:46.221Z,23.43
2019-01-29T11:27:46.489Z,23.39
2019-01-29T11:28:46.161Z,23.43
2019-01-29T11:29:46.172Z,23.34
2019-01-29T11:30:46.124Z,23.41
2019-01-29T11:31:46.107Z,23.43
2019-01-29T11:32:46.162Z,23.40
2019-01-29T11:33:46.327Z,23.41
2019-01-29T11:34:46.346Z,23.25
2019-01-29T11:35:46.130Z,23.12
2019-01-29T11:36:46.058Z,23.03
2019-01-29T11:37:46.090Z,22.98
2019-01-29T11:38:46.061Z,22.81
2019-01-29T11:39:46.174Z,22.83
2019-01-29T11:40:46.030Z,22.91
2019-01-29T11:41:46.175Z,22.93
2019-01-29T11:42:47.096Z,22.98
2019-01-29T11:43:45.981Z,22.98
2019-01-29T11:44:45.989Z,22.84
2019-01-29T11:45:45.964Z,22.75
2019-01-29T11:46:45.951Z,22.76
2019-01-29T11:47:45.963Z,22.66
2019-01-29T11:48:45.977Z,22.76
2019-01-29T11:49:45.913Z,22.81
2019-01-29T11:50:45.919Z,22.78
2019-01-29T11:51:45.925Z,22.84
2019-01-29T11:52:45.973Z,22.83
2019-01-29T11:53:45.951Z,22.83
2019-01-29T11:54:45.858Z,22.84
2019-01-29T11:55:45.888Z,22.85
2019-01-29T11:56:45.836Z,22.91
2019-01-29T11:57:46.929Z,23.00
2019-01-29T11:58:45.856Z,22.94
2019-01-29T11:59:45.834Z,22.98
2019-01-29T12:00:45.791Z,22.99
2019-01-29T12:01:45.779Z,22.98
2019-01-29T12:02:45.767Z,22.91
2019-01-29T12:03:46.450Z,22.90
2019-01-29T12:04:45.757Z,22.87
2019-01-29T12:05:45.808Z,22.66
2019-01-29T12:06:45.731Z,22.62
2019-01-29T12:07:45.735Z,22.70
2019-01-29T12:08:45.748Z,22.72
2019-01-29T12:09:45.715Z,22.76
2019-01-29T12:10:45.685Z,22.68
2019-01-29T12:11:45.676Z,22.68
2019-01-29T12:12:45.688Z,22.62
2019-01-29T12:13:45.723Z,22.63
2019-01-29T12:14:45.641Z,22.48
2019-01-29T12:15:45.640Z,22.48
2019-01-29T12:16:45.623Z,22.41
2019-01-29T12:17:45.681Z,22.50
2019-01-29T12:18:45.716Z,22.45
2019-01-29T12:19:45.637Z,22.53
2019-01-29T12:20:45.630Z,22.44
2019-01-29T12:21:45.615Z,22.30
2019-01-29T12:22:45.580Z,22.39
2019-01-29T12:23:45.698Z,22.26
2019-01-29T12:24:45.631Z,22.25
2019-01-29T12:25:45.595Z,22.22
2019-01-29T12:26:45.556Z,22.26
2019-01-29T12:27:45.525Z,22.32
2019-01-29T12:28:45.633Z,22.32
2019-01-29T12:29:45.479Z,22.28
2019-01-29T12:30:45.467Z,22.30
2019-01-29T12:31:45.633Z,22.28
2019-01-29T12:32:45.752Z,22.23
2019-01-29T12:33:45.470Z,22.23
2019-01-29T12:34:45.423Z,22.20
2019-01-29T12:35:45.425Z,22.13
2019-01-29T12:36:45.423Z,22.08
2019-01-29T12:37:45.415Z,22.18
2019-01-29T12:38:45.420Z,22.17
2019-01-29T12:39:45.419Z,22.14
2019-01-29T12:40:45.381Z,22.13
2019-01-29T12:41:45.837Z,22.11
2019-01-29T12:42:45.359Z,22.10
2019-01-29T12:43:45.821Z,22.13
2019-01-29T12:44:45.393Z,22.07
2019-01-29T12:45:45.304Z,22.11
2019-01-29T12:46:45.300Z,21.98
2019-01-29T12:47:45.278Z,22.00
2019-01-29T12:48:45.390Z,22.00
2019-01-29T12:49:45.292Z,22.00
2019-01-29T12:50:45.251Z,21.89
2019-01-29T12:51:45.241Z,21.95
2019-01-29T12:52:45.237Z,21.95
2019-01-29T12:53:45.273Z,21.93